Allemand, Louisiana
Current Conditions -  °F | °C
As of 9:47 AM on Thursday 30 Oct 2014 (Local Time) from KHUM Reporting Station
Clear Clear  
Wind Chill: 68°   Ceiling: Unl
Heat Index: 68°   Visibility: 7mi
Dew Point: 48°   Wind: 14mph
Humidity: 49%   Direction: 40°NE
Pressure: 30.11"   Gusts: NA
Location:  29.5867°N, 90.8252°W
Report Text: KHUM 301447Z 04012KT 7SM SKC 20/09 A3011 RMK ATIS DELTA VA RY36 RY12/30 CLSD MS
Loading
Personal Weather Stations






























Interactive Weather Map New forecast layout! Learn more

10-Day Weather Forecast

Advertisements
Track Severe Weather on mobile